Saint-Sauveur, Quebec

6:00 AM EST on February 07, 2016 (GMT -0500)
Saint-Sauveur, QUEBEC, CANADA | | Change Station
CLOSE
Current Station
Personal Weather Station
Location: Saint-Sauveur, QUéBEC
Elevation: 1107 ft
Nearby Weather Stations

Elev 1107 ft 45.87 °N, 74.17 °W | Updated 2 minutes ago

Light Snow
Light Snow
20.1 °F
Feels Like 20 °F
N
1.0
Wind Variable Wind from NE
Gusts 6.0 mph

Today is forecast to be nearly the same temperature as yesterday.

Today
High -- | Low -- °F
--% Chance of Precip.
Yesterday
High -- | Low -- °F
Precip. -- in
Pressure 30.10 in
Visibility 15.0 miles
Clouds Overcast 2700 ft
Windchill 20 °F
Dew Point 16 °F
Humidity 83%
Rainfall 0.00 in
Snow Depth Not available.
7:11 AM 5:10 PM
Waning Crescent, 2% visible
METAR CYMX 071000Z 31006KT 290V350 15SM -SN OVC027 M03/M09 A3008 RMK SC8 SLP193
Pressure 30.10 in
Visibility 15.0 miles
Clouds Overcast 2700 ft
Windchill 20 °F
Dew Point 16 °F
Humidity 83%
Rainfall 0.00 in
Snow Depth Not available.
7:11 AM 5:10 PM
Waning Crescent, 2% visible
METAR CYMX 071000Z 31006KT 290V350 15SM -SN OVC027 M03/M09 A3008 RMK SC8 SLP193

10-Day Weather Forecast

Heavy Snow conditions possible.

Almanac

Astronomy

Feb. 07, 2016 Rise Set
Actual Time
Civil Twilight
Nautical Twilight
Astronomical Twilight
Moon
Length of Visible Light
Length of Day
Tomorrow will be .
, % of the Moon is Illuminated

Today's Extremes

Country Highs Country Lows

Community

WunderPhotos

Upload Photos

1,891,171 photos uploaded!

WunderBlog® & News

Nearby

Air Quality

  Air Quality AQ Index Pollutant
Not available.

Snow Depth

Station Depth Elevation

Earthquake Activity

City Distance Mag. Time & Date
Minimum magnitude displayed is 2.5.

Coastal Water Temperatures

Place Temperature

Stations

Nearby Weather Stations

Station Location Temp. Windchill Dew Point Humidity Wind Precip. Elev Updated Type
                   

Watches & Warnings

There are currently no watches in effect.